Aviation Digital Data Service (ADDS)

Output produced by METARs form (1751 UTC 23 October 2014)
found at http://aviationweather.gov/adds/metars/
 
KALB 231725Z 2318/2418 36010G15KT 6SM -DZ BR SCT008 OVC015 
     TEMPO 2318/2320 4SM -RA BR BKN008 OVC015 
     FM240400 34009KT 5SM -DZ SCT008 BKN015 OVC025 
     FM241300 32011KT P6SM VCSH BKN025 OVC035